createdAt,value
2019-06-27T00:01:52.896Z,99.90
2019-06-27T00:04:33.260Z,99.90
2019-06-27T00:07:10.814Z,99.90
2019-06-27T00:09:52.282Z,99.90
2019-06-27T00:12:30.542Z,99.90
2019-06-27T00:15:06.220Z,99.90
2019-06-27T00:17:42.744Z,99.90
2019-06-27T00:20:19.395Z,99.90
2019-06-27T00:22:54.431Z,99.90
2019-06-27T00:25:32.288Z,99.90
2019-06-27T00:28:02.627Z,99.90
2019-06-27T00:30:38.408Z,99.90
2019-06-27T00:33:19.279Z,99.90
2019-06-27T00:35:58.565Z,99.90
2019-06-27T00:38:36.170Z,99.90
2019-06-27T00:41:13.086Z,99.90
2019-06-27T00:43:50.642Z,99.90
2019-06-27T00:46:21.667Z,99.90
2019-06-27T00:48:59.986Z,99.90
2019-06-27T00:51:40.135Z,99.90
2019-06-27T00:54:19.928Z,99.90
2019-06-27T00:57:09.501Z,99.90
2019-06-27T00:59:35.470Z,99.90
2019-06-27T01:02:12.759Z,99.90
2019-06-27T01:04:51.041Z,99.90
2019-06-27T01:07:29.494Z,99.90
2019-06-27T01:10:12.905Z,99.90
2019-06-27T01:12:49.898Z,99.90
2019-06-27T01:15:28.826Z,99.90
2019-06-27T01:18:10.210Z,99.90
2019-06-27T01:21:05.169Z,99.90
2019-06-27T01:23:39.379Z,99.90
2019-06-27T01:26:13.927Z,99.90
2019-06-27T01:28:51.387Z,99.90
2019-06-27T01:31:29.987Z,99.90
2019-06-27T01:34:10.772Z,99.90
2019-06-27T01:36:51.531Z,99.90
2019-06-27T01:39:26.298Z,99.90
2019-06-27T01:42:05.092Z,99.90
2019-06-27T01:44:46.177Z,99.90
2019-06-27T01:47:25.106Z,99.90
2019-06-27T01:50:03.267Z,99.90
2019-06-27T01:52:40.375Z,99.90
2019-06-27T01:55:18.814Z,99.90
2019-06-27T01:57:53.425Z,99.90
2019-06-27T02:00:33.106Z,99.90
2019-06-27T02:03:15.095Z,99.90
2019-06-27T02:05:52.562Z,99.90
2019-06-27T02:08:30.593Z,99.90
2019-06-27T02:11:10.918Z,99.90
2019-06-27T02:13:50.151Z,99.90
2019-06-27T02:16:28.736Z,99.90
2019-06-27T02:19:07.753Z,99.90
2019-06-27T02:21:44.322Z,99.90
2019-06-27T02:24:23.963Z,99.90
2019-06-27T02:27:04.551Z,99.90
2019-06-27T02:29:42.291Z,99.90
2019-06-27T02:32:19.920Z,99.90
2019-06-27T02:34:56.680Z,99.90
2019-06-27T02:37:34.679Z,99.90
2019-06-27T02:40:13.264Z,99.90
2019-06-27T02:42:53.269Z,99.90
2019-06-27T02:45:22.187Z,99.90
2019-06-27T02:47:59.517Z,99.90
2019-06-27T02:50:33.591Z,99.90
2019-06-27T02:53:11.291Z,99.90
2019-06-27T02:55:48.034Z,99.90
2019-06-27T02:58:30.942Z,99.90
2019-06-27T03:00:57.137Z,99.90
2019-06-27T03:03:32.596Z,99.90
2019-06-27T03:06:06.760Z,99.90
2019-06-27T03:08:44.827Z,99.90
2019-06-27T03:11:23.850Z,99.90
2019-06-27T03:13:59.503Z,99.90
2019-06-27T03:16:42.648Z,99.90
2019-06-27T03:19:23.167Z,99.90
2019-06-27T03:22:05.829Z,99.90
2019-06-27T03:24:44.394Z,99.90
2019-06-27T03:27:22.226Z,99.90
2019-06-27T03:30:02.860Z,99.90
2019-06-27T03:32:42.839Z,99.90
2019-06-27T03:35:18.151Z,99.90
2019-06-27T03:37:54.714Z,99.90
2019-06-27T03:40:31.380Z,99.90
2019-06-27T03:43:00.785Z,99.90
2019-06-27T03:45:35.519Z,99.90
2019-06-27T03:48:15.521Z,99.90
2019-06-27T03:50:55.851Z,99.90
2019-06-27T03:53:33.264Z,99.90
2019-06-27T03:56:08.287Z,99.90
2019-06-27T03:58:47.132Z,99.90
2019-06-27T04:01:21.240Z,99.90
2019-06-27T04:03:59.523Z,99.90
2019-06-27T04:06:39.160Z,99.90
2019-06-27T04:09:17.354Z,99.90
2019-06-27T04:11:51.702Z,99.90
2019-06-27T04:14:28.430Z,99.90
2019-06-27T04:17:05.267Z,99.90
2019-06-27T04:19:43.941Z,99.90
2019-06-27T04:22:18.063Z,99.90
2019-06-27T04:24:55.519Z,99.90
2019-06-27T04:27:33.936Z,99.90
2019-06-27T04:30:13.264Z,99.90
2019-06-27T04:32:50.575Z,99.90
2019-06-27T04:35:28.237Z,99.90
2019-06-27T04:38:09.800Z,99.90
2019-06-27T04:40:48.489Z,99.90
2019-06-27T04:43:25.171Z,99.90
2019-06-27T04:46:03.126Z,99.90
2019-06-27T04:48:38.990Z,99.90
2019-06-27T04:51:20.117Z,99.90
2019-06-27T04:53:56.765Z,99.90
2019-06-27T04:56:35.653Z,99.90
2019-06-27T04:59:04.453Z,99.90
2019-06-27T05:01:43.268Z,99.90
2019-06-27T05:04:18.219Z,99.90
2019-06-27T05:06:55.937Z,99.90
2019-06-27T05:09:35.476Z,99.90
2019-06-27T05:12:16.009Z,99.90
2019-06-27T05:14:55.363Z,99.90
2019-06-27T05:17:31.914Z,99.90
2019-06-27T05:20:09.961Z,99.90
2019-06-27T05:22:47.110Z,99.90
2019-06-27T05:25:20.723Z,99.90
2019-06-27T05:27:57.543Z,99.90
2019-06-27T05:30:34.168Z,99.90
2019-06-27T05:33:12.777Z,99.90
2019-06-27T05:35:50.642Z,99.90
2019-06-27T05:38:26.072Z,99.90
2019-06-27T05:41:00.882Z,99.90
2019-06-27T05:43:39.662Z,99.90
2019-06-27T05:46:17.256Z,99.90
2019-06-27T05:48:57.848Z,99.90
2019-06-27T05:51:33.274Z,99.90
2019-06-27T05:54:08.964Z,99.90
2019-06-27T05:56:44.475Z,99.90
2019-06-27T05:59:19.479Z,99.90
2019-06-27T06:01:57.266Z,99.90
2019-06-27T06:04:33.235Z,99.90
2019-06-27T06:07:13.145Z,99.90
2019-06-27T06:09:49.129Z,99.90
2019-06-27T06:12:23.267Z,99.90
2019-06-27T06:15:00.591Z,99.90
2019-06-27T06:17:37.920Z,99.90
2019-06-27T06:20:11.607Z,99.90
2019-06-27T06:22:50.598Z,99.90
2019-06-27T06:25:25.785Z,99.90
2019-06-27T06:27:56.213Z,99.90
2019-06-27T06:30:43.927Z,99.90
2019-06-27T06:33:19.453Z,99.90
2019-06-27T06:35:55.918Z,99.90
2019-06-27T06:38:34.632Z,99.90
2019-06-27T06:41:12.145Z,99.90
2019-06-27T06:43:47.120Z,99.90
2019-06-27T06:46:26.387Z,99.90
2019-06-27T06:49:03.265Z,99.90
2019-06-27T06:51:42.464Z,99.90
2019-06-27T06:54:20.456Z,99.90
2019-06-27T06:57:01.955Z,99.90
2019-06-27T06:59:39.220Z,99.90
2019-06-27T07:02:19.072Z,99.90
2019-06-27T07:04:52.583Z,99.90
2019-06-27T07:07:28.834Z,99.90
2019-06-27T07:10:04.318Z,99.90
2019-06-27T07:12:41.170Z,99.90
2019-06-27T07:15:19.551Z,99.90
2019-06-27T07:17:56.221Z,99.90
2019-06-27T07:20:35.225Z,99.90
2019-06-27T07:23:12.274Z,99.90
2019-06-27T07:25:52.251Z,99.90
2019-06-27T07:28:28.336Z,99.90
2019-06-27T07:31:17.356Z,99.90
2019-06-27T07:33:42.985Z,99.90
2019-06-27T07:36:13.267Z,99.90
2019-06-27T07:38:53.265Z,99.90
2019-06-27T07:41:28.096Z,99.90
2019-06-27T07:44:03.757Z,99.90
2019-06-27T07:46:42.635Z,99.90
2019-06-27T07:49:22.422Z,99.90
2019-06-27T07:51:59.439Z,99.90
2019-06-27T07:54:40.062Z,99.90
2019-06-27T07:57:20.174Z,99.90
2019-06-27T08:00:03.265Z,99.90
2019-06-27T08:02:40.371Z,99.90
2019-06-27T08:05:18.251Z,99.90
2019-06-27T08:07:55.125Z,99.90
2019-06-27T08:10:31.796Z,99.90
2019-06-27T08:13:11.363Z,99.90
2019-06-27T08:15:50.928Z,99.90
2019-06-27T08:18:28.182Z,99.90
2019-06-27T08:21:09.751Z,99.90
2019-06-27T08:23:49.144Z,99.90
2019-06-27T08:26:29.522Z,99.90
2019-06-27T08:29:04.581Z,99.90
2019-06-27T08:31:51.346Z,99.90
2019-06-27T08:34:21.271Z,99.90
2019-06-27T08:36:59.789Z,99.90
2019-06-27T08:39:36.562Z,99.90
2019-06-27T08:42:17.050Z,99.90
2019-06-27T08:44:53.269Z,99.90
2019-06-27T08:47:30.301Z,99.90
2019-06-27T08:50:11.113Z,99.90
2019-06-27T08:52:46.842Z,99.90
2019-06-27T08:55:26.407Z,99.90
2019-06-27T08:58:02.518Z,99.90
2019-06-27T09:00:45.743Z,99.90
2019-06-27T09:03:17.132Z,99.90
2019-06-27T09:05:58.734Z,99.90
2019-06-27T09:08:38.638Z,99.90
2019-06-27T09:11:15.170Z,99.90
2019-06-27T09:13:53.024Z,99.90
2019-06-27T09:16:30.809Z,99.90
2019-06-27T09:19:12.084Z,99.90
2019-06-27T09:21:50.190Z,99.90
2019-06-27T09:24:27.774Z,99.90
2019-06-27T09:27:08.699Z,99.90
2019-06-27T09:29:48.719Z,99.90
2019-06-27T09:32:31.698Z,99.90
2019-06-27T09:35:11.325Z,99.90
2019-06-27T09:37:49.524Z,99.90
2019-06-27T09:40:31.295Z,99.90
2019-06-27T09:43:13.267Z,99.90
2019-06-27T09:45:49.343Z,99.90
2019-06-27T09:48:25.963Z,99.90
2019-06-27T09:51:02.826Z,99.90
2019-06-27T09:53:40.929Z,99.90
2019-06-27T09:56:19.636Z,99.90
2019-06-27T09:58:59.530Z,99.90
2019-06-27T10:01:37.191Z,99.90
2019-06-27T10:04:13.267Z,99.90
2019-06-27T10:06:49.595Z,99.90
2019-06-27T10:09:28.419Z,99.90
2019-06-27T10:12:07.580Z,99.90
2019-06-27T10:14:46.198Z,99.90
2019-06-27T10:17:24.878Z,99.90
2019-06-27T10:20:03.267Z,99.90
2019-06-27T10:22:38.219Z,99.90
2019-06-27T10:25:17.013Z,99.90
2019-06-27T10:27:58.426Z,99.90
2019-06-27T10:30:37.219Z,99.90
2019-06-27T10:33:15.649Z,99.90
2019-06-27T10:35:55.878Z,99.90
2019-06-27T10:38:37.922Z,99.90
2019-06-27T10:41:16.117Z,99.90
2019-06-27T10:43:52.271Z,99.90
2019-06-27T10:46:31.909Z,99.90
2019-06-27T10:49:08.478Z,99.90
2019-06-27T10:51:45.806Z,99.90
2019-06-27T10:54:21.077Z,99.90
2019-06-27T10:56:57.821Z,99.90
2019-06-27T10:59:26.777Z,99.90
2019-06-27T11:02:01.524Z,99.90
2019-06-27T11:04:36.524Z,99.90
2019-06-27T11:07:14.738Z,99.90
2019-06-27T11:09:50.281Z,99.90
2019-06-27T11:12:34.426Z,99.90
2019-06-27T11:15:11.185Z,99.90
2019-06-27T11:17:46.701Z,99.90
2019-06-27T11:20:23.106Z,99.90
2019-06-27T11:23:01.589Z,99.90
2019-06-27T11:25:44.969Z,99.90
2019-06-27T11:28:21.092Z,99.90
2019-06-27T11:30:59.040Z,99.90
2019-06-27T11:33:36.929Z,99.90
2019-06-27T11:36:14.456Z,99.90
2019-06-27T11:38:53.196Z,99.90
2019-06-27T11:41:29.525Z,99.90
2019-06-27T11:44:11.099Z,99.90
2019-06-27T11:46:46.621Z,99.90
2019-06-27T11:49:24.855Z,99.90
2019-06-27T11:52:05.580Z,99.90
2019-06-27T11:54:43.425Z,99.90
2019-06-27T11:57:19.099Z,99.90
2019-06-27T11:59:57.543Z,99.90
2019-06-27T12:02:37.014Z,99.90
2019-06-27T12:05:14.035Z,99.90
2019-06-27T12:07:52.434Z,99.90
2019-06-27T12:10:33.290Z,99.90
2019-06-27T12:13:09.339Z,99.90
2019-06-27T12:15:51.745Z,99.90
2019-06-27T12:18:31.614Z,99.90
2019-06-27T12:21:14.086Z,99.90
2019-06-27T12:23:50.209Z,99.90
2019-06-27T12:26:27.941Z,99.90
2019-06-27T12:29:06.403Z,99.90
2019-06-27T12:31:51.334Z,99.90
2019-06-27T12:34:29.700Z,99.90
2019-06-27T12:37:08.842Z,99.90
2019-06-27T12:39:43.961Z,99.90
2019-06-27T12:42:31.603Z,99.90
2019-06-27T12:44:59.610Z,99.90
2019-06-27T12:47:36.065Z,99.90
2019-06-27T12:50:13.044Z,99.90
2019-06-27T12:52:52.474Z,99.90
2019-06-27T12:55:33.971Z,99.90
2019-06-27T12:58:13.235Z,99.90
2019-06-27T13:00:50.377Z,99.90
2019-06-27T13:03:29.170Z,99.90
2019-06-27T13:06:09.910Z,99.90
2019-06-27T13:08:47.144Z,99.90
2019-06-27T13:11:21.857Z,99.90
2019-06-27T13:13:55.856Z,99.90
2019-06-27T13:16:36.375Z,99.90
2019-06-27T13:19:12.184Z,99.90
2019-06-27T13:21:52.458Z,99.90
2019-06-27T13:24:29.895Z,99.90
2019-06-27T13:27:08.119Z,99.90
2019-06-27T13:29:44.573Z,99.90
2019-06-27T13:32:25.569Z,99.90
2019-06-27T13:35:02.624Z,99.90
2019-06-27T13:37:38.420Z,99.90
2019-06-27T13:40:18.607Z,99.90
2019-06-27T13:42:56.108Z,99.90
2019-06-27T13:45:39.922Z,99.90
2019-06-27T13:48:17.240Z,99.90
2019-06-27T13:50:57.806Z,99.90
2019-06-27T13:53:37.756Z,99.90
2019-06-27T13:56:19.297Z,99.90
2019-06-27T13:58:57.688Z,99.90
2019-06-27T14:01:39.310Z,99.90
2019-06-27T14:04:16.662Z,99.90
2019-06-27T14:06:59.458Z,99.90
2019-06-27T14:09:51.054Z,99.90
2019-06-27T14:12:16.884Z,99.90
2019-06-27T14:14:59.657Z,99.90
2019-06-27T14:17:33.166Z,99.90
2019-06-27T14:20:12.702Z,99.90
2019-06-27T14:22:47.222Z,99.90
2019-06-27T14:25:19.179Z,99.90
2019-06-27T14:27:54.173Z,99.90
2019-06-27T14:30:33.276Z,99.90
2019-06-27T14:33:13.265Z,99.90
2019-06-27T14:35:53.265Z,99.90
2019-06-27T14:38:30.748Z,99.90
2019-06-27T14:41:07.383Z,99.90
2019-06-27T14:43:45.283Z,99.90
2019-06-27T14:46:25.553Z,99.90
2019-06-27T14:49:05.598Z,99.90
2019-06-27T14:51:45.185Z,99.90
2019-06-27T14:54:22.468Z,99.90
2019-06-27T14:56:59.535Z,99.90
2019-06-27T14:59:39.238Z,99.90
2019-06-27T15:02:16.722Z,99.90
2019-06-27T15:04:54.031Z,99.90
2019-06-27T15:07:30.268Z,99.90
2019-06-27T15:10:04.760Z,99.90
2019-06-27T15:12:56.489Z,99.90
2019-06-27T15:15:23.971Z,99.90
2019-06-27T15:18:00.790Z,99.90
2019-06-27T15:20:40.684Z,99.90
2019-06-27T15:23:13.763Z,99.90
2019-06-27T15:25:52.615Z,99.90
2019-06-27T15:28:34.203Z,99.90
2019-06-27T15:31:11.897Z,99.90
2019-06-27T15:33:44.231Z,99.90
2019-06-27T15:36:18.103Z,99.90
2019-06-27T15:38:56.080Z,99.90
2019-06-27T15:41:34.578Z,99.90
2019-06-27T15:44:13.940Z,99.90
2019-06-27T15:46:49.309Z,99.90
2019-06-27T15:49:29.874Z,99.90
2019-06-27T15:51:59.489Z,99.80
2019-06-27T15:54:37.539Z,98.50
2019-06-27T15:57:12.326Z,97.10
2019-06-27T15:59:53.161Z,96.30
2019-06-27T16:02:31.592Z,95.70
2019-06-27T16:05:10.506Z,94.60
2019-06-27T16:07:49.166Z,92.10
2019-06-27T16:10:27.237Z,91.40
2019-06-27T16:13:06.187Z,90.60
2019-06-27T16:15:43.263Z,87.90
2019-06-27T16:18:18.511Z,85.80
2019-06-27T16:20:57.523Z,82.40
2019-06-27T16:23:33.885Z,82.70
2019-06-27T16:26:08.885Z,80.20
2019-06-27T16:28:46.652Z,79.20
2019-06-27T16:31:24.119Z,77.70
2019-06-27T16:34:02.214Z,75.80
2019-06-27T16:36:38.494Z,76.70
2019-06-27T16:39:17.243Z,72.70
2019-06-27T16:41:52.227Z,68.80
2019-06-27T16:44:26.958Z,68.90
2019-06-27T16:47:03.263Z,67.40
2019-06-27T16:49:42.091Z,68.40
2019-06-27T16:52:21.979Z,70.00
2019-06-27T16:55:01.815Z,70.80
2019-06-27T16:57:35.688Z,71.10
2019-06-27T17:00:10.620Z,71.00
2019-06-27T17:02:49.206Z,71.20
2019-06-27T17:05:23.262Z,73.90
2019-06-27T17:08:00.199Z,71.50
2019-06-27T17:10:40.155Z,72.80
2019-06-27T17:13:20.167Z,75.20
2019-06-27T17:16:00.016Z,76.20
2019-06-27T17:18:38.487Z,74.30
2019-06-27T17:21:09.187Z,75.20
2019-06-27T17:23:43.536Z,76.40
2019-06-27T17:26:17.608Z,78.40
2019-06-27T17:28:53.260Z,77.10
2019-06-27T17:31:26.555Z,77.70
2019-06-27T17:33:57.216Z,77.10
2019-06-27T17:36:38.693Z,76.30
2019-06-27T17:39:17.548Z,75.40
2019-06-27T17:41:52.505Z,76.40
2019-06-27T17:44:29.650Z,75.90
2019-06-27T17:47:03.260Z,73.40
2019-06-27T17:49:43.260Z,74.90
2019-06-27T17:52:12.889Z,73.60
2019-06-27T17:54:53.259Z,75.50
2019-06-27T17:57:28.599Z,76.40
2019-06-27T18:00:04.150Z,75.70
2019-06-27T18:02:35.598Z,75.60
2019-06-27T18:05:10.396Z,75.90
2019-06-27T18:07:45.460Z,75.90
2019-06-27T18:10:21.304Z,77.00
2019-06-27T18:12:59.229Z,77.20
2019-06-27T18:15:39.052Z,77.20
2019-06-27T18:18:16.076Z,77.80
2019-06-27T18:20:52.906Z,79.40
2019-06-27T18:23:34.991Z,78.40
2019-06-27T18:26:12.190Z,78.30
2019-06-27T18:28:45.167Z,78.90
2019-06-27T18:31:24.133Z,80.00
2019-06-27T18:34:01.064Z,80.80
2019-06-27T18:36:37.143Z,80.70
2019-06-27T18:39:17.278Z,80.90
2019-06-27T18:41:52.030Z,82.10
2019-06-27T18:44:32.758Z,83.90
2019-06-27T18:47:09.714Z,85.00
2019-06-27T18:49:46.829Z,85.50
2019-06-27T18:52:24.766Z,86.60
2019-06-27T18:55:00.944Z,87.90
2019-06-27T18:57:43.257Z,88.50
2019-06-27T19:00:21.101Z,88.30
2019-06-27T19:02:59.974Z,89.10
2019-06-27T19:05:34.592Z,84.90
2019-06-27T19:08:12.419Z,85.80
2019-06-27T19:10:45.835Z,82.60
2019-06-27T19:13:22.591Z,81.20
2019-06-27T19:15:59.358Z,81.80
2019-06-27T19:18:47.155Z,82.10
2019-06-27T19:21:25.112Z,82.40
2019-06-27T19:24:11.832Z,81.80
2019-06-27T19:26:47.555Z,80.00
2019-06-27T19:29:27.411Z,80.20
2019-06-27T19:32:04.269Z,81.30
2019-06-27T19:34:39.857Z,80.50
2019-06-27T19:37:18.361Z,79.70
2019-06-27T19:40:00.424Z,79.00
2019-06-27T19:42:37.257Z,79.60
2019-06-27T19:45:15.330Z,79.40
2019-06-27T19:47:52.344Z,81.00
2019-06-27T19:50:32.156Z,80.40
2019-06-27T19:53:13.258Z,81.00
2019-06-27T19:55:49.008Z,82.30
2019-06-27T19:58:28.906Z,82.90
2019-06-27T20:01:07.966Z,82.90
2019-06-27T20:03:41.500Z,82.30
2019-06-27T20:06:18.040Z,81.80
2019-06-27T20:08:57.729Z,81.30
2019-06-27T20:11:32.829Z,80.90
2019-06-27T20:14:11.987Z,80.40
2019-06-27T20:16:49.415Z,81.60
2019-06-27T20:19:29.648Z,81.20
2019-06-27T20:22:05.577Z,81.30
2019-06-27T20:24:45.498Z,81.60
2019-06-27T20:27:25.498Z,82.10
2019-06-27T20:30:00.555Z,81.60
2019-06-27T20:32:41.077Z,81.10
2019-06-27T20:35:18.294Z,81.00
2019-06-27T20:37:51.933Z,82.00
2019-06-27T20:40:29.100Z,81.70
2019-06-27T20:43:09.999Z,83.30
2019-06-27T20:45:48.853Z,81.40
2019-06-27T20:48:26.093Z,81.30
2019-06-27T20:51:03.262Z,81.40
2019-06-27T20:53:41.127Z,80.50
2019-06-27T20:56:16.660Z,80.70
2019-06-27T20:58:54.919Z,81.80
2019-06-27T21:01:37.075Z,81.00
2019-06-27T21:04:16.624Z,80.40
2019-06-27T21:06:54.088Z,79.90
2019-06-27T21:09:32.595Z,79.10
2019-06-27T21:12:12.429Z,78.70
2019-06-27T21:14:51.382Z,77.60
2019-06-27T21:17:33.843Z,79.00
2019-06-27T21:20:14.383Z,80.00
2019-06-27T21:22:56.069Z,82.50
2019-06-27T21:25:39.066Z,83.20
2019-06-27T21:28:14.783Z,82.70
2019-06-27T21:30:49.949Z,82.20
2019-06-27T21:33:26.718Z,82.50
2019-06-27T21:36:04.961Z,86.10
2019-06-27T21:38:44.521Z,83.20
2019-06-27T21:41:22.209Z,87.70
2019-06-27T21:44:00.121Z,84.60
2019-06-27T21:46:39.831Z,83.70
2019-06-27T21:49:16.420Z,83.00
2019-06-27T21:51:53.260Z,83.30
2019-06-27T21:54:31.069Z,88.50
2019-06-27T21:57:09.282Z,82.60
2019-06-27T21:59:46.753Z,85.60
2019-06-27T22:02:23.260Z,80.10
2019-06-27T22:05:03.235Z,80.20
2019-06-27T22:07:41.530Z,78.90
2019-06-27T22:10:19.212Z,77.40
2019-06-27T22:12:56.663Z,78.30
2019-06-27T22:15:30.990Z,76.10
2019-06-27T22:18:06.056Z,73.70
2019-06-27T22:20:39.650Z,72.20
2019-06-27T22:23:17.277Z,73.50
2019-06-27T22:25:56.855Z,71.60
2019-06-27T22:28:34.100Z,72.70
2019-06-27T22:31:12.565Z,74.50
2019-06-27T22:33:58.495Z,69.40
2019-06-27T22:36:30.843Z,69.90
2019-06-27T22:39:36.237Z,73.70
2019-06-27T22:42:19.270Z,70.20
2019-06-27T22:45:16.174Z,68.00
2019-06-27T22:48:13.094Z,69.40
2019-06-27T22:50:56.533Z,70.40
2019-06-27T22:53:36.068Z,70.10
2019-06-27T22:56:15.267Z,66.40
2019-06-27T22:58:47.901Z,65.20
2019-06-27T23:01:26.276Z,66.80
2019-06-27T23:04:04.344Z,65.90
2019-06-27T23:06:43.260Z,65.40
2019-06-27T23:09:20.705Z,68.00
2019-06-27T23:12:00.542Z,71.00
2019-06-27T23:14:41.968Z,68.80
2019-06-27T23:17:16.848Z,65.10
2019-06-27T23:19:56.117Z,74.20
2019-06-27T23:22:30.098Z,70.30
2019-06-27T23:25:07.108Z,69.50
2019-06-27T23:27:45.663Z,71.80
2019-06-27T23:30:23.260Z,67.20
2019-06-27T23:33:02.421Z,66.90
2019-06-27T23:35:41.042Z,66.60
2019-06-27T23:38:18.217Z,66.00
2019-06-27T23:40:54.427Z,72.60
2019-06-27T23:43:37.201Z,71.50
2019-06-27T23:46:16.447Z,67.20
2019-06-27T23:48:58.048Z,67.40
2019-06-27T23:51:35.461Z,66.70
2019-06-27T23:54:12.183Z,68.30
2019-06-27T23:56:47.352Z,68.10
2019-06-27T23:59:24.668Z,68.80
